createdAt,value
2023-03-26T00:00:25.419Z,62.26
2023-03-26T00:01:25.338Z,61.88
2023-03-26T00:02:25.429Z,61.54
2023-03-26T00:03:25.208Z,61.49
2023-03-26T00:04:25.352Z,61.36
2023-03-26T00:05:25.212Z,61.34
2023-03-26T00:06:25.299Z,61.33
2023-03-26T00:07:25.164Z,61.32
2023-03-26T00:08:25.316Z,61.16
2023-03-26T00:09:25.124Z,61.13
2023-03-26T00:10:25.148Z,60.95
2023-03-26T00:11:25.100Z,60.95
2023-03-26T00:12:46.211Z,60.83
2023-03-26T00:13:25.075Z,60.94
2023-03-26T00:14:46.217Z,60.80
2023-03-26T00:15:25.043Z,60.64
2023-03-26T00:16:25.206Z,60.60
2023-03-26T00:17:25.122Z,60.66
2023-03-26T00:18:26.175Z,60.55
2023-03-26T00:19:24.994Z,60.71
2023-03-26T00:21:34.513Z,60.56
2023-03-26T00:22:34.301Z,60.54
2023-03-26T00:23:34.402Z,60.83
2023-03-26T00:24:34.274Z,60.60
2023-03-26T00:25:35.418Z,60.48
2023-03-26T00:26:34.248Z,60.33
2023-03-26T00:27:34.312Z,60.26
2023-03-26T00:28:34.228Z,60.53
2023-03-26T00:29:34.337Z,60.54
2023-03-26T00:30:34.241Z,60.34
2023-03-26T00:31:34.386Z,60.35
2023-03-26T00:32:34.198Z,60.25
2023-03-26T00:33:34.316Z,60.23
2023-03-26T00:34:34.166Z,60.20
2023-03-26T00:35:34.227Z,59.88
2023-03-26T00:36:34.131Z,59.85
2023-03-26T00:37:36.284Z,59.93
2023-03-26T00:38:34.108Z,60.00
2023-03-26T00:39:34.199Z,60.04
2023-03-26T00:40:34.081Z,59.96
2023-03-26T00:41:34.219Z,59.99
2023-03-26T00:42:34.066Z,60.00
2023-03-26T00:43:34.105Z,59.98
2023-03-26T00:44:34.033Z,59.95
2023-03-26T00:45:34.135Z,60.03
2023-03-26T00:46:34.070Z,60.23
2023-03-26T00:47:34.176Z,60.19
2023-03-26T00:48:44.624Z,60.03
2023-03-26T00:49:34.974Z,60.26
2023-03-26T00:50:36.065Z,60.21
2023-03-26T00:51:34.091Z,60.25
2023-03-26T00:52:34.015Z,60.20
2023-03-26T00:53:33.923Z,60.10
2023-03-26T00:54:33.982Z,60.27
2023-03-26T00:55:33.876Z,60.16
2023-03-26T00:56:55.017Z,60.77
2023-03-26T00:57:35.864Z,60.57
2023-03-26T00:58:33.915Z,61.48
2023-03-26T00:59:33.859Z,62.34
2023-03-26T01:00:33.952Z,62.35
2023-03-26T01:01:33.893Z,62.18
2023-03-26T01:02:33.926Z,62.33
2023-03-26T01:03:33.956Z,62.03
2023-03-26T01:04:34.002Z,62.09
2023-03-26T01:05:33.769Z,62.30
2023-03-26T01:06:33.854Z,62.44
2023-03-26T01:07:33.723Z,63.13
2023-03-26T01:08:33.820Z,62.34
2023-03-26T01:09:33.706Z,62.98
2023-03-26T01:10:33.823Z,63.22
2023-03-26T01:11:33.704Z,63.69
2023-03-26T01:12:33.754Z,63.19
2023-03-26T01:13:33.652Z,63.20
2023-03-26T01:14:33.698Z,63.66
2023-03-26T01:15:33.650Z,63.72
2023-03-26T01:16:33.729Z,64.32
2023-03-26T01:17:33.630Z,65.19
2023-03-26T01:18:34.683Z,64.68
2023-03-26T01:19:33.574Z,64.40
2023-03-26T01:20:35.691Z,63.67
2023-03-26T01:21:33.544Z,63.70
2023-03-26T01:22:33.794Z,63.64
2023-03-26T01:23:33.601Z,63.83
2023-03-26T01:24:33.576Z,64.19
2023-03-26T01:25:33.505Z,64.66
2023-03-26T01:26:33.606Z,64.09
2023-03-26T01:27:33.471Z,63.47
2023-03-26T01:28:33.535Z,62.89
2023-03-26T01:29:33.483Z,63.02
2023-03-26T01:30:33.640Z,62.30
2023-03-26T01:31:33.411Z,62.42
2023-03-26T01:32:33.550Z,62.90
2023-03-26T01:33:33.491Z,62.80
2023-03-26T01:34:35.532Z,62.62
2023-03-26T01:35:33.421Z,62.63
2023-03-26T01:36:33.480Z,62.11
2023-03-26T01:37:33.339Z,61.80
2023-03-26T01:38:34.382Z,61.50
2023-03-26T01:39:33.321Z,61.40
2023-03-26T01:40:33.452Z,61.01
2023-03-26T01:41:33.312Z,61.03
2023-03-26T01:42:33.396Z,60.86
2023-03-26T01:43:33.267Z,61.01
2023-03-26T01:44:33.303Z,61.01
2023-03-26T01:45:33.227Z,61.00
2023-03-26T01:46:33.368Z,60.90
2023-03-26T01:47:33.237Z,60.74
2023-03-26T01:48:33.285Z,60.77
2023-03-26T01:49:33.173Z,60.59
2023-03-26T01:50:34.359Z,60.59
2023-03-26T01:51:33.153Z,60.65
2023-03-26T01:52:33.169Z,61.15
2023-03-26T01:53:33.143Z,60.76
2023-03-26T01:54:33.197Z,60.58
2023-03-26T01:55:33.096Z,60.58
2023-03-26T01:56:34.169Z,60.48
2023-03-26T01:57:33.069Z,60.59
2023-03-26T01:58:33.170Z,60.39
2023-03-26T01:59:33.072Z,60.51
2023-03-26T02:00:33.205Z,60.55
2023-03-26T02:01:33.089Z,60.43
2023-03-26T02:02:34.162Z,60.42
2023-03-26T02:03:33.005Z,60.41
2023-03-26T02:04:33.113Z,60.38
2023-03-26T02:05:33.017Z,60.24
2023-03-26T02:06:34.034Z,60.12
2023-03-26T02:07:32.948Z,60.16
2023-03-26T02:08:33.051Z,60.07
2023-03-26T02:09:32.925Z,59.99
2023-03-26T02:10:33.080Z,59.94
2023-03-26T02:11:35.891Z,60.14
2023-03-26T02:12:33.023Z,60.16
2023-03-26T02:13:32.863Z,60.14
2023-03-26T02:14:32.953Z,60.08
2023-03-26T02:15:32.839Z,60.11
2023-03-26T02:16:33.111Z,60.25
2023-03-26T02:17:32.873Z,60.19
2023-03-26T02:18:32.918Z,60.03
2023-03-26T02:19:32.815Z,60.03
2023-03-26T02:20:35.174Z,59.96
2023-03-26T02:21:32.968Z,59.96
2023-03-26T02:22:32.978Z,59.89
2023-03-26T02:23:32.747Z,59.88
2023-03-26T02:24:32.812Z,59.87
2023-03-26T02:25:32.710Z,59.91
2023-03-26T02:26:32.789Z,59.81
2023-03-26T02:27:32.687Z,59.77
2023-03-26T02:28:32.702Z,59.79
2023-03-26T02:29:32.678Z,59.91
2023-03-26T02:30:32.720Z,60.10
2023-03-26T02:31:32.654Z,60.09
2023-03-26T02:32:32.806Z,60.01
2023-03-26T02:33:32.614Z,59.94
2023-03-26T02:34:32.642Z,60.00
2023-03-26T02:35:32.661Z,60.03
2023-03-26T02:36:32.813Z,60.10
2023-03-26T02:37:32.552Z,60.03
2023-03-26T02:38:53.647Z,60.02
2023-03-26T02:39:32.571Z,60.00
2023-03-26T02:40:32.614Z,59.92
2023-03-26T02:41:32.524Z,59.98
2023-03-26T02:42:32.656Z,59.95
2023-03-26T02:43:32.469Z,59.96
2023-03-26T02:44:32.573Z,59.92
2023-03-26T02:45:32.503Z,59.91
2023-03-26T02:46:32.688Z,59.94
2023-03-26T02:47:32.449Z,60.03
2023-03-26T02:48:33.478Z,59.92
2023-03-26T02:49:32.388Z,60.15
2023-03-26T02:50:32.488Z,60.03
2023-03-26T02:51:32.358Z,60.15
2023-03-26T02:52:32.518Z,60.04
2023-03-26T02:53:32.358Z,60.07
2023-03-26T02:54:33.478Z,60.22
2023-03-26T02:55:32.308Z,60.16
2023-03-26T02:56:32.537Z,60.20
2023-03-26T02:57:32.283Z,60.31
2023-03-26T02:58:32.319Z,60.30
2023-03-26T02:59:32.302Z,60.29
2023-03-26T03:00:33.749Z,60.22
2023-03-26T03:01:32.300Z,60.38
2023-03-26T03:02:32.425Z,60.45
2023-03-26T03:03:32.224Z,60.55
2023-03-26T03:04:32.328Z,60.83
2023-03-26T03:05:32.197Z,60.88
2023-03-26T03:06:33.393Z,60.88
2023-03-26T03:07:32.163Z,60.74
2023-03-26T03:08:32.204Z,60.60
2023-03-26T03:09:32.179Z,60.69
2023-03-26T03:10:32.324Z,60.82
2023-03-26T03:11:32.124Z,60.74
2023-03-26T03:12:32.200Z,60.72
2023-03-26T03:13:32.071Z,60.74
2023-03-26T03:14:32.221Z,60.81
2023-03-26T03:15:32.046Z,60.82
2023-03-26T03:16:32.227Z,60.88
2023-03-26T03:17:32.055Z,61.09
2023-03-26T03:18:32.072Z,61.17
2023-03-26T03:19:31.999Z,61.16
2023-03-26T03:20:32.112Z,61.08
2023-03-26T03:21:31.961Z,60.99
2023-03-26T03:22:32.148Z,60.98
2023-03-26T03:23:31.957Z,61.00
2023-03-26T03:24:34.180Z,60.99
2023-03-26T03:25:31.917Z,60.92
2023-03-26T03:26:32.022Z,60.88
2023-03-26T03:27:31.890Z,60.86
2023-03-26T03:28:31.953Z,61.06
2023-03-26T03:29:31.880Z,61.11
2023-03-26T03:31:41.282Z,61.25
2023-03-26T03:32:41.198Z,61.24
2023-03-26T03:33:41.304Z,61.39
2023-03-26T03:34:41.163Z,61.43
2023-03-26T03:35:42.233Z,61.48
2023-03-26T03:36:41.117Z,61.50
2023-03-26T03:37:41.274Z,61.52
2023-03-26T03:38:41.083Z,61.42
2023-03-26T03:39:41.114Z,61.49
2023-03-26T03:40:41.075Z,61.52
2023-03-26T03:42:02.131Z,61.45
2023-03-26T03:42:41.056Z,61.49
2023-03-26T03:43:41.190Z,61.53
2023-03-26T03:44:41.005Z,61.45
2023-03-26T03:45:41.234Z,61.43
2023-03-26T03:46:41.045Z,61.42
2023-03-26T03:47:41.233Z,61.53
2023-03-26T03:48:40.954Z,61.53
2023-03-26T03:49:40.995Z,61.39
2023-03-26T03:50:40.930Z,61.33
2023-03-26T03:51:41.035Z,61.43
2023-03-26T03:52:40.916Z,61.53
2023-03-26T03:54:50.242Z,61.37
2023-03-26T03:55:50.127Z,61.38
2023-03-26T03:56:50.295Z,61.53
2023-03-26T03:57:50.494Z,61.48
2023-03-26T03:58:50.629Z,61.47
2023-03-26T03:59:50.077Z,61.46
2023-03-26T04:00:51.271Z,61.52
2023-03-26T04:01:51.029Z,61.56
2023-03-26T04:02:51.784Z,61.50
2023-03-26T04:03:52.509Z,61.58
2023-03-26T04:04:50.026Z,61.71
2023-03-26T04:05:50.180Z,61.92
2023-03-26T04:06:49.986Z,61.82
2023-03-26T04:07:50.128Z,61.76
2023-03-26T04:08:49.959Z,61.75
2023-03-26T04:09:50.102Z,61.83
2023-03-26T04:10:49.940Z,61.96
2023-03-26T04:12:11.987Z,62.10
2023-03-26T04:12:49.918Z,62.17
2023-03-26T04:13:51.513Z,62.46
2023-03-26T04:14:49.923Z,62.43
2023-03-26T04:15:50.065Z,62.31
2023-03-26T04:16:49.859Z,62.43
2023-03-26T04:17:49.933Z,62.33
2023-03-26T04:18:49.826Z,62.28
2023-03-26T04:19:49.926Z,62.28
2023-03-26T04:20:49.802Z,62.13
2023-03-26T04:22:59.550Z,62.19
2023-03-26T04:23:59.451Z,62.19
2023-03-26T04:25:00.515Z,62.08
2023-03-26T04:25:59.466Z,62.02
2023-03-26T04:26:59.534Z,62.02
2023-03-26T04:27:59.398Z,62.11
2023-03-26T04:28:59.478Z,62.10
2023-03-26T04:29:59.366Z,62.36
2023-03-26T04:30:59.385Z,62.46
2023-03-26T04:31:59.460Z,63.18
2023-03-26T04:32:59.386Z,63.11
2023-03-26T04:33:59.506Z,63.35
2023-03-26T04:34:59.331Z,63.96
2023-03-26T04:35:59.464Z,63.95
2023-03-26T04:36:59.289Z,63.86
2023-03-26T04:37:59.360Z,63.62
2023-03-26T04:38:59.275Z,63.94
2023-03-26T04:39:59.404Z,64.33
2023-03-26T04:40:59.228Z,64.37
2023-03-26T04:42:01.436Z,64.36
2023-03-26T04:42:59.211Z,64.42
2023-03-26T04:44:00.751Z,64.41
2023-03-26T04:44:59.195Z,64.48
2023-03-26T04:45:59.205Z,63.91
2023-03-26T04:46:59.161Z,63.86
2023-03-26T04:47:59.262Z,63.53
2023-03-26T04:49:01.078Z,63.35
2023-03-26T04:49:59.285Z,63.06
2023-03-26T04:50:59.118Z,63.10
2023-03-26T04:51:59.227Z,63.45
2023-03-26T04:52:59.101Z,63.62
2023-03-26T04:53:59.253Z,62.92
2023-03-26T04:54:59.050Z,63.32
2023-03-26T04:55:59.162Z,63.14
2023-03-26T04:56:59.053Z,63.12
2023-03-26T04:57:59.116Z,62.94
2023-03-26T04:58:58.997Z,63.36
2023-03-26T04:59:59.153Z,62.95
2023-03-26T05:00:58.987Z,63.62
2023-03-26T05:02:00.151Z,64.23
2023-03-26T05:03:00.044Z,64.52
2023-03-26T05:03:58.950Z,64.83
2023-03-26T05:04:59.094Z,64.32
2023-03-26T05:05:58.908Z,64.06
2023-03-26T05:07:00.053Z,64.54
2023-03-26T05:07:58.912Z,64.06
2023-03-26T05:08:58.989Z,63.70
2023-03-26T05:09:58.847Z,63.62
2023-03-26T05:10:58.898Z,63.69
2023-03-26T05:12:00.576Z,63.34
2023-03-26T05:13:01.023Z,63.45
2023-03-26T05:14:00.050Z,63.12
2023-03-26T05:14:58.974Z,62.74
2023-03-26T05:15:58.797Z,62.63
2023-03-26T05:16:58.903Z,62.58
2023-03-26T05:17:58.816Z,62.42
2023-03-26T05:19:00.833Z,62.78
2023-03-26T05:19:58.736Z,62.42
2023-03-26T05:20:58.777Z,62.65
2023-03-26T05:21:58.685Z,62.59
2023-03-26T05:22:58.809Z,62.70
2023-03-26T05:23:58.669Z,62.36
2023-03-26T05:24:58.858Z,62.54
2023-03-26T05:25:58.675Z,62.29
2023-03-26T05:26:58.771Z,62.04
2023-03-26T05:27:58.610Z,61.81
2023-03-26T05:29:00.758Z,61.62
2023-03-26T05:29:58.580Z,61.31
2023-03-26T05:30:58.762Z,61.18
2023-03-26T05:31:58.592Z,61.14
2023-03-26T05:32:58.770Z,61.15
2023-03-26T05:33:58.601Z,61.22
2023-03-26T05:34:58.722Z,60.95
2023-03-26T05:35:58.535Z,60.86
2023-03-26T05:36:58.602Z,60.85
2023-03-26T05:37:58.493Z,60.71
2023-03-26T05:38:58.584Z,60.61
2023-03-26T05:39:58.461Z,61.13
2023-03-26T05:41:03.047Z,60.80
2023-03-26T05:41:58.484Z,60.37
2023-03-26T05:42:58.795Z,60.38
2023-03-26T05:44:00.895Z,60.21
2023-03-26T05:45:02.316Z,60.10
2023-03-26T05:45:58.392Z,59.67
2023-03-26T05:46:58.428Z,59.69
2023-03-26T05:47:58.419Z,59.67
2023-03-26T05:49:01.667Z,59.87
2023-03-26T05:49:58.342Z,59.63
2023-03-26T05:50:58.408Z,59.66
2023-03-26T05:51:58.337Z,59.92
2023-03-26T05:52:58.439Z,59.94
2023-03-26T05:53:58.268Z,59.58
2023-03-26T05:54:58.475Z,59.62
2023-03-26T05:55:58.598Z,59.71
2023-03-26T05:56:58.357Z,59.40
2023-03-26T05:57:58.228Z,59.43
2023-03-26T05:58:58.344Z,59.58
2023-03-26T05:59:58.195Z,59.58
2023-03-26T06:00:58.279Z,59.86
2023-03-26T06:01:58.195Z,59.84
2023-03-26T06:02:59.489Z,59.88
2023-03-26T06:03:58.272Z,59.95
2023-03-26T06:04:58.249Z,59.84
2023-03-26T06:06:02.564Z,59.59
2023-03-26T06:06:58.123Z,59.83
2023-03-26T06:07:58.209Z,60.12
2023-03-26T06:09:01.431Z,59.54
2023-03-26T06:09:58.061Z,59.36
2023-03-26T06:10:58.264Z,59.01
2023-03-26T06:11:58.039Z,59.10
2023-03-26T06:13:19.235Z,58.93
2023-03-26T06:13:58.011Z,58.75
2023-03-26T06:14:59.045Z,59.11
2023-03-26T06:15:58.018Z,59.12
2023-03-26T06:16:59.428Z,58.43
2023-03-26T06:17:57.986Z,58.63
2023-03-26T06:18:59.250Z,58.42
2023-03-26T06:19:57.934Z,58.62
2023-03-26T06:20:58.984Z,58.69
2023-03-26T06:21:57.904Z,58.43
2023-03-26T06:22:57.964Z,58.44
2023-03-26T06:23:57.880Z,57.92
2023-03-26T06:24:57.952Z,58.11
2023-03-26T06:25:57.842Z,58.04
2023-03-26T06:26:57.936Z,57.96
2023-03-26T06:27:57.820Z,58.12
2023-03-26T06:28:58.034Z,58.29
2023-03-26T06:29:57.793Z,58.56
2023-03-26T06:30:58.104Z,58.22
2023-03-26T06:32:06.155Z,58.19
2023-03-26T06:32:58.784Z,58.09
2023-03-26T06:33:57.833Z,58.66
2023-03-26T06:34:57.731Z,58.42
2023-03-26T06:35:59.873Z,58.40
2023-03-26T06:36:57.727Z,58.76
2023-03-26T06:37:59.872Z,58.51
2023-03-26T06:38:57.674Z,58.54
2023-03-26T06:39:57.812Z,58.56
2023-03-26T06:40:57.651Z,58.30
2023-03-26T06:41:57.763Z,58.66
2023-03-26T06:43:08.831Z,58.21
2023-03-26T06:43:58.614Z,58.39
2023-03-26T06:44:57.761Z,59.11
2023-03-26T06:45:57.707Z,58.96
2023-03-26T06:46:57.730Z,58.60
2023-03-26T06:47:57.602Z,58.66
2023-03-26T06:48:57.674Z,58.69
2023-03-26T06:49:57.534Z,58.79
2023-03-26T06:50:57.696Z,59.07
2023-03-26T06:51:57.539Z,58.85
2023-03-26T06:52:57.802Z,58.88
2023-03-26T06:53:57.487Z,58.71
2023-03-26T06:54:57.588Z,58.93
2023-03-26T06:55:57.453Z,58.67
2023-03-26T06:56:57.612Z,58.65
2023-03-26T06:57:57.994Z,58.69
2023-03-26T06:59:18.589Z,58.67
2023-03-26T06:59:57.430Z,58.63
2023-03-26T07:00:57.664Z,58.69
2023-03-26T07:01:57.369Z,58.53
2023-03-26T07:03:20.542Z,58.91
2023-03-26T07:04:00.064Z,58.66
2023-03-26T07:04:59.171Z,58.20
2023-03-26T07:05:57.813Z,58.15
2023-03-26T07:06:57.405Z,58.50
2023-03-26T07:07:57.297Z,58.54
2023-03-26T07:08:57.518Z,58.46
2023-03-26T07:09:57.333Z,58.18
2023-03-26T07:10:57.690Z,58.67
2023-03-26T07:11:57.280Z,58.26
2023-03-26T07:12:57.405Z,58.22
2023-03-26T07:13:57.240Z,58.08
2023-03-26T07:14:59.693Z,58.20
2023-03-26T07:15:57.188Z,57.79
2023-03-26T07:16:57.328Z,57.89
2023-03-26T07:17:57.170Z,57.56
2023-03-26T07:18:57.308Z,57.55
2023-03-26T07:19:57.126Z,57.84
2023-03-26T07:20:57.362Z,57.89
2023-03-26T07:21:57.640Z,58.11
2023-03-26T07:22:59.227Z,57.44
2023-03-26T07:23:57.075Z,57.60
2023-03-26T07:24:57.228Z,57.24
2023-03-26T07:25:57.075Z,57.17
2023-03-26T07:26:57.844Z,57.42
2023-03-26T07:27:57.018Z,57.56
2023-03-26T07:29:03.998Z,57.46
2023-03-26T07:29:58.016Z,57.54
2023-03-26T07:30:57.927Z,57.29
2023-03-26T07:31:57.102Z,57.04
2023-03-26T07:32:58.185Z,56.76
2023-03-26T07:33:56.962Z,56.98
2023-03-26T07:34:58.066Z,57.26
2023-03-26T07:35:56.947Z,57.24
2023-03-26T07:36:59.746Z,57.33
2023-03-26T07:37:57.254Z,57.24
2023-03-26T07:38:57.457Z,57.68
2023-03-26T07:39:56.923Z,57.09
2023-03-26T07:41:03.254Z,57.33
2023-03-26T07:41:58.831Z,57.51
2023-03-26T07:43:02.607Z,57.03
2023-03-26T07:43:57.289Z,57.39
2023-03-26T07:45:02.534Z,57.24
2023-03-26T07:45:58.320Z,57.16
2023-03-26T07:46:57.669Z,56.78
2023-03-26T07:47:58.016Z,56.68
2023-03-26T07:48:56.942Z,56.45
2023-03-26T07:49:56.724Z,56.84
2023-03-26T07:51:04.679Z,57.16
2023-03-26T07:51:56.714Z,56.52
2023-03-26T07:52:56.793Z,56.23
2023-03-26T07:53:56.705Z,56.37
2023-03-26T07:54:56.695Z,56.24
2023-03-26T07:55:56.666Z,56.57
2023-03-26T07:56:58.850Z,56.20
2023-03-26T07:57:56.658Z,55.81
2023-03-26T07:58:56.716Z,55.41
2023-03-26T07:59:56.623Z,54.97
2023-03-26T08:00:56.842Z,55.26
2023-03-26T08:01:56.594Z,54.53
2023-03-26T08:02:57.293Z,54.63
2023-03-26T08:03:56.628Z,54.73
2023-03-26T08:04:56.631Z,54.04
2023-03-26T08:05:59.504Z,54.13
2023-03-26T08:06:59.659Z,53.73
2023-03-26T08:07:56.677Z,53.66
2023-03-26T08:08:56.698Z,53.54
2023-03-26T08:09:56.463Z,53.36
2023-03-26T08:10:59.356Z,53.74
2023-03-26T08:11:57.253Z,54.20
2023-03-26T08:13:00.929Z,54.11
2023-03-26T08:13:57.100Z,53.83
2023-03-26T08:15:00.128Z,53.69
2023-03-26T08:15:56.900Z,54.12
2023-03-26T08:16:57.798Z,53.71
2023-03-26T08:17:56.401Z,53.72
2023-03-26T08:18:56.457Z,53.57
2023-03-26T08:19:56.331Z,53.55
2023-03-26T08:20:56.634Z,53.43
2023-03-26T08:21:56.588Z,52.54
2023-03-26T08:22:56.370Z,52.46
2023-03-26T08:23:56.291Z,52.04
2023-03-26T08:24:56.294Z,52.29
2023-03-26T08:25:56.241Z,53.03
2023-03-26T08:26:56.297Z,52.37
2023-03-26T08:27:56.232Z,52.65
2023-03-26T08:28:56.312Z,52.56
2023-03-26T08:29:57.822Z,51.93
2023-03-26T08:30:56.440Z,52.51
2023-03-26T08:31:57.919Z,52.23
2023-03-26T08:32:56.361Z,52.76
2023-03-26T08:33:56.160Z,52.18
2023-03-26T08:34:57.442Z,51.95
2023-03-26T08:35:56.685Z,52.04
2023-03-26T08:36:57.958Z,51.72
2023-03-26T08:38:01.564Z,51.87
2023-03-26T08:38:57.470Z,52.14
2023-03-26T08:39:57.928Z,52.29
2023-03-26T08:40:56.326Z,51.45
2023-03-26T08:42:02.818Z,51.82
2023-03-26T08:43:07.690Z,51.85
2023-03-26T08:44:00.906Z,51.68
2023-03-26T08:45:04.185Z,51.46
2023-03-26T08:45:56.261Z,51.56
2023-03-26T08:46:56.203Z,52.15
2023-03-26T08:47:56.477Z,51.98
2023-03-26T08:48:56.613Z,51.13
2023-03-26T08:49:55.979Z,50.51
2023-03-26T08:50:56.221Z,50.28
2023-03-26T08:51:55.905Z,50.38
2023-03-26T08:52:56.059Z,50.71
2023-03-26T08:53:55.893Z,50.07
2023-03-26T08:54:58.127Z,49.68
2023-03-26T08:55:55.843Z,50.32
2023-03-26T08:56:56.026Z,49.70
2023-03-26T08:57:55.828Z,49.67
2023-03-26T08:58:55.944Z,49.39
2023-03-26T08:59:55.827Z,49.49
2023-03-26T09:00:57.136Z,49.42
2023-03-26T09:01:55.807Z,49.73
2023-03-26T09:02:57.582Z,49.84
2023-03-26T09:03:55.798Z,49.65
2023-03-26T09:04:55.853Z,49.88
2023-03-26T09:05:58.936Z,50.25
2023-03-26T09:06:55.709Z,50.18
2023-03-26T09:07:55.854Z,50.10
2023-03-26T09:08:55.677Z,49.96
2023-03-26T09:09:56.814Z,49.34
2023-03-26T09:10:55.818Z,49.99
2023-03-26T09:11:58.757Z,50.25
2023-03-26T09:12:55.626Z,48.28
2023-03-26T09:13:58.245Z,48.70
2023-03-26T09:14:55.621Z,48.32
2023-03-26T09:15:56.095Z,48.24
2023-03-26T09:16:55.574Z,48.45
2023-03-26T09:17:58.059Z,47.75
2023-03-26T09:18:55.577Z,47.21
2023-03-26T09:20:16.664Z,47.57
2023-03-26T09:20:56.178Z,47.92
2023-03-26T09:21:55.611Z,47.45
2023-03-26T09:22:55.493Z,47.92
2023-03-26T09:23:56.609Z,47.88
2023-03-26T09:24:55.473Z,47.58
2023-03-26T09:26:16.610Z,47.87
2023-03-26T09:26:55.860Z,48.27
2023-03-26T09:27:55.578Z,48.59
2023-03-26T09:28:55.425Z,48.16
2023-03-26T09:29:55.493Z,48.03
2023-03-26T09:30:55.877Z,47.72
2023-03-26T09:31:56.065Z,47.97
2023-03-26T09:32:55.763Z,47.44
2023-03-26T09:33:58.164Z,47.11
2023-03-26T09:34:55.471Z,47.74
2023-03-26T09:35:56.910Z,48.22
2023-03-26T09:36:58.607Z,47.95
2023-03-26T09:37:56.499Z,47.79
2023-03-26T09:38:55.953Z,47.71
2023-03-26T09:39:55.614Z,48.37
2023-03-26T09:40:56.033Z,47.95
2023-03-26T09:41:55.936Z,47.92
2023-03-26T09:42:57.919Z,48.04
2023-03-26T09:43:56.119Z,48.25
2023-03-26T09:44:57.131Z,48.06
2023-03-26T09:45:56.155Z,47.62
2023-03-26T09:46:56.720Z,47.42
2023-03-26T09:47:55.663Z,48.49
2023-03-26T09:48:57.397Z,48.70
2023-03-26T09:49:55.500Z,48.22
2023-03-26T09:50:55.772Z,47.29
2023-03-26T09:51:56.507Z,47.76
2023-03-26T09:52:56.376Z,47.69
2023-03-26T09:53:55.387Z,47.22
2023-03-26T09:54:55.698Z,47.05
2023-03-26T09:55:55.289Z,47.73
2023-03-26T09:56:55.574Z,48.00
2023-03-26T09:57:55.401Z,46.98
2023-03-26T09:58:56.136Z,46.25
2023-03-26T09:59:55.377Z,47.31
2023-03-26T10:00:58.349Z,46.25
2023-03-26T10:01:55.464Z,46.31
2023-03-26T10:02:56.005Z,46.73
2023-03-26T10:03:57.562Z,45.01
2023-03-26T10:04:55.771Z,45.23
2023-03-26T10:05:57.931Z,45.21
2023-03-26T10:06:55.228Z,44.82
2023-03-26T10:07:57.100Z,45.12
2023-03-26T10:08:55.188Z,44.50
2023-03-26T10:09:59.509Z,43.35
2023-03-26T10:10:55.672Z,43.12
2023-03-26T10:11:55.661Z,43.28
2023-03-26T10:13:02.124Z,43.74
2023-03-26T10:13:56.211Z,43.57
2023-03-26T10:14:58.142Z,43.81
2023-03-26T10:15:55.171Z,46.05
2023-03-26T10:17:16.193Z,44.03
2023-03-26T10:17:55.345Z,43.89
2023-03-26T10:18:57.153Z,44.12
2023-03-26T10:19:58.246Z,43.50
2023-03-26T10:20:54.858Z,43.47
2023-03-26T10:21:54.784Z,43.61
2023-03-26T10:22:54.718Z,43.89
2023-03-26T10:23:54.702Z,43.83
2023-03-26T10:24:54.920Z,44.14
2023-03-26T10:25:54.762Z,43.77
2023-03-26T10:27:10.113Z,43.82
2023-03-26T10:27:55.689Z,44.02
2023-03-26T10:28:55.064Z,43.90
2023-03-26T10:29:54.602Z,44.21
2023-03-26T10:30:54.791Z,44.20
2023-03-26T10:31:56.707Z,45.23
2023-03-26T10:32:54.684Z,44.60
2023-03-26T10:33:54.563Z,43.47
2023-03-26T10:34:54.781Z,43.20
2023-03-26T10:35:55.150Z,43.16
2023-03-26T10:36:54.603Z,43.49
2023-03-26T10:37:54.788Z,45.90
2023-03-26T10:38:56.666Z,45.42
2023-03-26T10:39:54.511Z,43.16
2023-03-26T10:40:54.656Z,42.90
2023-03-26T10:41:54.443Z,43.93
2023-03-26T10:42:54.592Z,42.83
2023-03-26T10:44:05.217Z,43.07
2023-03-26T10:44:55.442Z,44.04
2023-03-26T10:45:54.514Z,43.01
2023-03-26T10:46:54.390Z,43.16
2023-03-26T10:47:54.526Z,47.39
2023-03-26T10:48:54.363Z,42.67
2023-03-26T10:49:54.411Z,42.44
2023-03-26T10:50:54.800Z,42.27
2023-03-26T10:51:54.388Z,44.07
2023-03-26T10:52:54.296Z,43.14
2023-03-26T10:53:54.349Z,42.63
2023-03-26T10:54:54.273Z,42.79
2023-03-26T10:55:54.313Z,42.49
2023-03-26T10:56:54.328Z,42.21
2023-03-26T10:57:54.329Z,41.69
2023-03-26T10:58:54.219Z,42.19
2023-03-26T10:59:56.340Z,41.31
2023-03-26T11:00:54.340Z,40.42
2023-03-26T11:01:54.342Z,40.38
2023-03-26T11:02:55.809Z,40.84
2023-03-26T11:03:54.295Z,42.64
2023-03-26T11:04:54.144Z,41.10
2023-03-26T11:05:54.269Z,43.00
2023-03-26T11:06:54.112Z,41.70
2023-03-26T11:07:54.230Z,41.42
2023-03-26T11:08:54.117Z,41.27
2023-03-26T11:10:15.126Z,41.13
2023-03-26T11:10:54.234Z,42.62
2023-03-26T11:11:54.149Z,41.86
2023-03-26T11:12:54.036Z,41.38
2023-03-26T11:13:56.161Z,42.31
2023-03-26T11:14:54.049Z,40.85
2023-03-26T11:15:54.095Z,40.21
2023-03-26T11:16:55.409Z,43.07
2023-03-26T11:17:54.545Z,43.02
2023-03-26T11:18:53.965Z,40.22
2023-03-26T11:19:53.986Z,38.85
2023-03-26T11:20:54.166Z,38.53
2023-03-26T11:21:53.996Z,39.11
2023-03-26T11:22:53.909Z,39.05
2023-03-26T11:24:05.660Z,39.39
2023-03-26T11:24:54.947Z,38.94
2023-03-26T11:25:53.869Z,39.26
2023-03-26T11:26:53.985Z,38.88
2023-03-26T11:27:53.920Z,37.20
2023-03-26T11:29:04.149Z,36.79
2023-03-26T11:29:54.877Z,36.46
2023-03-26T11:30:54.066Z,36.36
2023-03-26T11:31:54.912Z,36.40
2023-03-26T11:32:53.803Z,37.76
2023-03-26T11:33:54.911Z,36.08
2023-03-26T11:34:53.765Z,36.63
2023-03-26T11:35:53.819Z,38.80
2023-03-26T11:36:53.720Z,41.51
2023-03-26T11:37:54.625Z,43.69
2023-03-26T11:38:53.756Z,37.98
2023-03-26T11:39:55.198Z,37.67
2023-03-26T11:40:53.799Z,37.81
2023-03-26T11:41:53.826Z,38.47
2023-03-26T11:42:53.834Z,36.64
2023-03-26T11:43:53.650Z,38.48
2023-03-26T11:44:56.048Z,39.35
2023-03-26T11:45:53.668Z,37.11
2023-03-26T11:46:53.694Z,39.38
2023-03-26T11:47:53.828Z,38.24
2023-03-26T11:48:53.565Z,37.68
2023-03-26T11:49:53.601Z,38.50
2023-03-26T11:50:53.839Z,38.53
2023-03-26T11:51:53.651Z,36.27
2023-03-26T11:52:53.504Z,36.71
2023-03-26T11:53:53.514Z,36.40
2023-03-26T11:54:53.514Z,37.17
2023-03-26T11:55:53.530Z,36.98
2023-03-26T11:57:05.266Z,37.38
2023-03-26T11:57:54.433Z,38.72
2023-03-26T11:58:53.552Z,36.15
2023-03-26T11:59:57.583Z,36.36
2023-03-26T12:00:53.523Z,37.67
2023-03-26T12:01:55.495Z,38.87
2023-03-26T12:02:53.433Z,45.99
2023-03-26T12:03:53.375Z,40.56
2023-03-26T12:04:53.440Z,36.02
2023-03-26T12:05:54.769Z,35.88
2023-03-26T12:06:53.315Z,36.60
2023-03-26T12:07:53.423Z,36.76
2023-03-26T12:08:53.304Z,35.95
2023-03-26T12:09:53.320Z,35.41
2023-03-26T12:10:53.399Z,35.36
2023-03-26T12:11:53.340Z,36.71
2023-03-26T12:12:53.656Z,35.63
2023-03-26T12:13:53.634Z,35.10
2023-03-26T12:14:53.617Z,36.26
2023-03-26T12:15:53.254Z,37.38
2023-03-26T12:16:53.242Z,35.23
2023-03-26T12:17:53.341Z,34.47
2023-03-26T12:18:53.916Z,35.58
2023-03-26T12:19:53.190Z,34.67
2023-03-26T12:20:53.272Z,35.23
2023-03-26T12:21:53.208Z,34.93
2023-03-26T12:22:53.094Z,36.28
2023-03-26T12:23:53.111Z,35.68
2023-03-26T12:24:53.065Z,37.46
2023-03-26T12:25:53.136Z,37.01
2023-03-26T12:26:53.314Z,37.85
2023-03-26T12:27:53.169Z,39.51
2023-03-26T12:28:53.014Z,40.99
2023-03-26T12:29:53.223Z,42.69
2023-03-26T12:30:53.139Z,38.29
2023-03-26T12:31:53.141Z,36.16
2023-03-26T12:32:53.801Z,38.60
2023-03-26T12:33:54.110Z,38.76
2023-03-26T12:34:53.512Z,44.81
2023-03-26T12:35:53.048Z,37.51
2023-03-26T12:36:53.843Z,36.03
2023-03-26T12:37:54.112Z,36.68
2023-03-26T12:39:16.024Z,35.62
2023-03-26T12:40:09.419Z,37.06
2023-03-26T12:40:54.092Z,37.24
2023-03-26T12:44:43.454Z,37.43
2023-03-26T12:44:51.383Z,37.92
2023-03-26T12:44:56.289Z,36.82
2023-03-26T12:44:58.956Z,36.82
2023-03-26T12:47:46.130Z,37.40
2023-03-26T12:47:55.588Z,37.97
2023-03-26T12:48:00.342Z,38.31
2023-03-26T12:48:53.820Z,36.72
2023-03-26T12:49:55.676Z,37.70
2023-03-26T12:50:52.995Z,37.10
2023-03-26T12:51:52.810Z,37.62
2023-03-26T12:52:52.708Z,38.30
2023-03-26T12:53:53.749Z,38.58
2023-03-26T12:54:52.669Z,39.26
2023-03-26T12:55:52.736Z,39.81
2023-03-26T12:57:12.773Z,38.15